• Join FlightAware (Why Join?)
  • Login
  • US Flag 
10:44PM EST


 

Airport Tracker/Info


-or-


 

Live Flight TrackerFlight Track Log ✈ UAL256 ✈ 25-Apr-2013 ✈ KDEN - KORD

Flight Track Log - Related Links

Times and Time Zones

All times are in EDT time to prevent confusion due to time zone crossing. See the UAL256 flight status page for this flight to view local times or setup timezone preferences in your user account.

Time Position Orientation Groundspeed Altitude Reporting Facility
EDT Latitude Longitude Course Direction KTS MPH feet Rate Location/Type
09:19PM 39.8767 -104.5856 83° East 189 217 6,600  Level Denver Center
09:20PM 39.9000 -104.5000 70° East 236 272 9,400 2,460 Climbing Denver TRACON
09:21PM 39.9143 -104.3641 78° East  Level FlightAware Approximate
09:22PM 39.9400 -104.2102 78° East  Level FlightAware Approximate
09:23PM 39.9640 -104.0579 66° East  Level FlightAware Approximate
09:23PM 39.9464 -104.2697 75° East 327 376 14,400  Level Denver Center
09:24PM 39.9876 -103.9035 79° East  Level FlightAware Approximate
09:24PM 39.9350 -104.1447 97° East 346 398 17,300  Level Denver Center
09:25PM 40.0179 -103.7539 83° East  Level FlightAware Approximate
09:25PM 39.9631 -104.0003 76° East 397 457 18,600  Level Denver Center
09:26PM 39.9992 -103.8550 72° East 425 489 20,600 1,980 Climbing Denver Center
09:27PM 40.0311 -103.7053 74° East 430 495 22,700 1,920 Climbing Denver Center
09:28PM 40.0581 -103.5456 78° East 446 513 24,600 1,980 Climbing Denver Center
09:29PM 40.0844 -103.3786 78° East 464 534 26,800 1,860 Climbing Denver Center
09:30PM 40.1158 -103.1886 78° East 456 525 28,500 1,500 Climbing Denver Center
09:31PM 40.1428 -103.0194 78° East 466 536 30,000 1,500 Climbing Denver Center
09:32PM 40.1689 -102.8467 79° East 479 551 31,600 1,200 Climbing Denver Center
09:33PM 40.1950 -102.6789 78° East 485 558 32,600 660 Climbing Denver Center
09:34PM 40.2261 -102.4828 78° East 494 568 33,000 480 Climbing Denver Center
09:35PM 40.2514 -102.3142 79° East 494 568 33,700 1,020 Climbing Denver Center
09:36PM 40.2850 -102.0872 79° East 496 571 35,400 1,200 Climbing Denver Center
09:37PM 40.3072 -101.9467 78° East 496 571 36,200 720 Climbing Denver Center
09:38PM 40.3403 -101.7189 79° East 498 573 37,000 360 Climbing Denver Center
09:39PM 40.3656 -101.5481 79° East 499 574 37,000  Level Denver Center
09:40PM 40.3947 -101.3483 79° East 501 577 37,000  Level Denver Center
09:41PM 40.4181 -101.1761 80° East 504 580 37,000  Level Denver Center
09:42PM 40.4472 -100.9789 79° East 498 573 37,000  Level Denver Center
09:43PM 40.4939 -100.8164 69° East 501 577 37,000  Level Denver Center
09:44PM 40.5600 -100.6383 64° Northeast 493 567 37,000  Level Denver Center
09:46PM 40.6175 -100.4836 64° Northeast 495 570 37,000  Level Denver Center
09:47PM 40.6844 -100.3042 64° Northeast 495 570 37,000  Level Denver Center
09:48PM 40.7411 -100.1475 64° Northeast 497 572 37,000  Level Denver Center
09:49PM 40.8078 -99.9647 64° Northeast 497 572 37,000  Level Denver Center
09:50PM 40.8711 -99.7903 64° Northeast 499 574 37,000  Level Denver Center
09:51PM 40.9183 -99.6597 64° Northeast 495 570 37,000  Level Denver Center
09:52PM 40.9897 -99.4600 65° Northeast 498 573 37,000  Level Denver Center
09:53PM 41.0483 -99.2950 65° Northeast 495 570 37,000  Level Denver Center
09:54PM 41.1064 -99.1297 65° Northeast 494 568 37,000  Level Denver Center
09:55PM 41.1753 -98.9336 65° Northeast 507 583 37,000  Level Denver Center
09:56PM 41.2100 -98.8356 65° Northeast 510 587 37,000  Level Minneapolis Center
09:57PM 41.2808 -98.6325 65° Northeast 506 582 37,000 -60 Level Minneapolis Center
09:58PM 41.3372 -98.4681 65° Northeast 496 571 36,900  Descending Minneapolis Center
09:59PM 41.3919 -98.3064 66° East 495 570 37,000  Climbing Minneapolis Center
10:00PM 41.4475 -98.1381 66° East 495 570 37,000  Level Minneapolis Center
10:01PM 41.5047 -97.9614 67° East 501 577 37,100  Climbing Minneapolis Center
10:02PM 41.5439 -97.7814 74° East 504 580 37,000  Descending Minneapolis Center
10:03PM 41.5706 -97.5947 79° East 511 588 37,100  Climbing Minneapolis Center
10:04PM 41.5986 -97.4069 79° East 514 592 37,000 -60 Descending Minneapolis Center
10:05PM 41.6325 -97.1814 79° East 515 593 37,000  Level Minneapolis Center
10:06PM 41.6614 -96.9947 78° East 513 590 37,000  Level Minneapolis Center
10:07PM 41.6878 -96.8078 79° East 512 589 37,000  Level Minneapolis Center
10:08PM 41.7147 -96.6200 79° East 511 588 37,000  Level Minneapolis Center
10:09PM 41.7417 -96.4322 79° East 512 589 37,000  Level Minneapolis Center
10:10PM 41.7686 -96.2447 79° East 509 586 37,000  Level Minneapolis Center
10:11PM 41.7944 -96.0556 80° East 511 588 37,000  Level Minneapolis Center
10:12PM 41.8200 -95.8664 80° East 512 589 37,000  Level Minneapolis Center
10:13PM 41.8464 -95.6781 79° East 511 588 37,000  Level Minneapolis Center
10:14PM 41.8706 -95.4875 80° East 514 592 37,000  Level Minneapolis Center
10:15PM 41.8956 -95.2983 80° East 514 592 37,000  Level Minneapolis Center
10:16PM 41.9256 -95.0725 80° East 512 589 37,000  Level Minneapolis Center
10:17PM 41.9492 -94.8819 80° East 514 592 37,000  Level Minneapolis Center
10:18PM 41.9739 -94.6906 80° East 517 595 37,000  Level Minneapolis Center
10:19PM 41.9961 -94.4997 81° East 518 596 37,000  Level Minneapolis Center
10:20PM 42.0211 -94.3067 80° East 522 601 37,000  Level Minneapolis Center
10:21PM 42.0439 -94.1147 81° East 521 600 37,000  Level Minneapolis Center
10:22PM 42.0672 -93.9239 81° East 519 597 37,000  Level Minneapolis Center
10:23PM 42.0933 -93.7047 81° East 520 598 37,000  Level Minneapolis Center
10:24PM 42.1181 -93.5153 80° East 519 597 37,000  Level Minneapolis Center
10:25PM 42.1378 -93.3244 82° East 520 598 37,000  Level Minneapolis Center
10:26PM 42.1589 -93.1333 81° East 520 598 37,000  Level Minneapolis Center
10:27PM 42.1786 -92.9431 82° East 520 598 37,000  Level Minneapolis Center
10:28PM 42.2039 -92.7167 81° East 516 594 37,000  Level Minneapolis Center
10:29PM 42.2242 -92.5283 82° East 514 592 37,000  Level Minneapolis Center
10:30PM 42.2442 -92.3392 82° East 515 593 37,000  Level Minneapolis Center
10:32PM 42.2639 -92.1514 82° East 514 592 37,000  Level Minneapolis Center
10:32PM 42.2789 -91.9997 82° East 512 589 37,000  Level Chicago Center
10:33PM 42.2978 -91.8136 82° East 508 585 37,000  Level Chicago Center
10:34PM 42.3192 -91.5886 83° East 512 589 37,000  Level Chicago Center
10:35PM 42.3378 -91.4008 82° East 513 590 37,000  Level Chicago Center
10:36PM 42.3550 -91.2122 83° East 515 593 37,000  Level Chicago Center
10:37PM 42.3733 -91.0206 83° East 520 598 37,000 -420 Level Chicago Center
10:38PM 42.3914 -90.8181 83° East 520 598 36,200 -840 Descending Chicago Center
10:39PM 42.4081 -90.6389 83° East 518 596 35,300 -1,680 Descending Chicago Center
10:41PM 42.4311 -90.4125 82° East 513 590 32,800 -2,520 Descending Chicago Center
10:42PM 42.4506 -90.2244 82° East 510 587 30,200 -2,760 Descending Chicago Center
10:43PM 42.4689 -90.0389 82° East 503 579 27,300 -2,220 Descending Chicago Center
10:44PM 42.4719 -89.8414 89° East 494 568 25,700 -1,320 Descending Chicago Center
10:45PM 42.4589 -89.6611 96° East 484 557 24,700 -1,620 Descending Chicago Center
10:46PM 42.4467 -89.4819 95° East 480 552 22,500 -2,340 Descending Chicago Center
10:47PM 42.4350 -89.3094 95° East 466 536 20,000 -2,280 Descending Chicago Center
10:48PM 42.4228 -89.1447 96° East 445 512 17,900 -2,160 Descending Chicago Center
10:49PM 42.4114 -88.9867 96° East 427 491 15,600 -2,520 Descending Chicago Center
10:50PM 42.3981 -88.8097 96° East 409 471 12,800 -2,520 Descending Chicago Center
10:51PM 42.3875 -88.6617 95° East 398 458 10,500 -1,380 Descending Chicago Center
10:52PM 42.3761 -88.5211 96° East 381 438 10,000 -300 Descending Chicago Center
10:53PM 42.3258 -88.4228 125° Southeast 373 429 10,000  Level Chicago Center
10:54PM 42.2408 -88.2936 132° Southeast 383 441 10,000  Level Chicago Center
10:55PM 42.1717 -88.1861 131° Southeast 381 438 10,000 -300 Level Chicago Center
10:56PM 42.1108 -88.0919 131° Southeast 340 391 9,500 -840 Descending Chicago Center
10:56PM 42.0833 -88.0167 116° Southeast 309 356 8,600 -1,380 Descending Chicago TRACON
10:57PM 42.0667 -87.9167 103° East 306 352 7,200 -780 Descending Chicago TRACON
10:58PM 42.0667 -87.8167 90° East 274 315 7,100 -600 Descending Chicago TRACON
10:59PM 42.0667 -87.7167 90° East 237 273 6,100 -1,200 Descending Chicago TRACON
11:00PM 42.0333 -87.6667 132° Southeast 231 266 4,700 -1,440 Descending Chicago TRACON